Time;durP1;ratioP1;P1;durP2;ratioP2;P2;SDS_P1;SDS_P2;PMS_P1;PMS_P2;Temp;Humidity;BMP_temperature;BMP_pressure;BME280_temperature;BME280_humidity;BME280_pressure;Samples;Min_cycle;Max_cycle;Signal;HPM_P1;HPM_P2
2021/05/20 00:00:30;;;;;;;6.38;5.78;;;6.90;99.90;;;;;;5147022;27;20066;-46
2021/05/20 00:02:59;;;;;;;7.47;6.78;;;6.90;99.90;;;;;;5151052;27;20046;-47
2021/05/20 00:05:27;;;;;;;8.30;7.47;;;6.80;99.90;;;;;;5147039;27;20039;-50
2021/05/20 00:07:53;;;;;;;10.07;9.07;;;6.80;99.90;;;;;;5147099;27;20510;-48
2021/05/20 00:10:19;;;;;;;8.43;7.72;;;6.80;99.90;;;;;;5146695;27;20081;-48
2021/05/20 00:12:50;;;;;;;8.38;7.55;;;6.80;99.90;;;;;;5147249;27;20043;-52
2021/05/20 00:15:19;;;;;;;8.18;7.18;;;6.80;99.90;;;;;;5148047;27;20046;-48
2021/05/20 00:17:45;;;;;;;8.13;7.38;;;6.80;99.90;;;;;;5147674;27;20047;-51
2021/05/20 00:20:15;;;;;;;8.52;6.65;;;6.80;99.90;;;;;;5155268;27;20099;-50
2021/05/20 00:22:44;;;;;;;8.43;7.07;;;6.70;99.90;;;;;;5148757;27;20806;-50
2021/05/20 00:25:13;;;;;;;8.30;7.40;;;6.70;99.90;;;;;;5148125;27;20050;-48
2021/05/20 00:27:39;;;;;;;7.90;7.03;;;6.70;99.90;;;;;;5148425;27;20058;-46
2021/05/20 00:30:07;;;;;;;79.28;11.80;;;6.60;99.90;;;;;;5148053;27;20035;-50
2021/05/20 00:32:38;;;;;;;72.32;11.38;;;6.60;99.90;;;;;;5147481;27;20077;-49
2021/05/20 00:35:05;;;;;;;42.53;9.95;;;6.60;99.90;;;;;;5148568;27;20095;-47
2021/05/20 00:37:33;;;;;;;62.60;12.18;;;6.60;99.90;;;;;;5148201;27;20041;-48
2021/05/20 00:40:03;;;;;;;57.83;13.65;;;6.60;99.90;;;;;;5150205;27;20070;-47
2021/05/20 00:42:31;;;;;;;33.50;11.65;;;6.60;99.90;;;;;;5147760;27;20054;-48
2021/05/20 00:45:04;;;;;;;21.58;11.73;;;6.60;99.90;;;;;;5149518;27;20034;-47
2021/05/20 00:47:34;;;;;;;30.10;12.10;;;6.60;99.90;;;;;;5146623;27;20297;-48
2021/05/20 00:50:05;;;;;;;35.92;12.15;;;6.60;99.90;;;;;;5133362;27;20057;-48
2021/05/20 00:52:38;;;;;;;84.32;15.52;;;6.50;99.90;;;;;;5129805;27;20054;-48
2021/05/20 00:55:07;;;;;;;27.23;13.13;;;6.50;99.90;;;;;;5149561;27;20046;-47
2021/05/20 00:57:34;;;;;;;13.60;10.25;;;6.50;99.90;;;;;;5150956;27;20057;-49
2021/05/20 01:00:12;;;;;;;13.90;10.90;;;6.30;99.90;;;;;;5151520;27;20042;-49
2021/05/20 01:02:39;;;;;;;10.95;9.85;;;6.40;99.90;;;;;;5145919;27;20091;-47
2021/05/20 01:05:11;;;;;;;12.70;10.70;;;6.30;99.90;;;;;;5150538;27;20051;-49
2021/05/20 01:07:38;;;;;;;11.10;8.82;;;6.30;99.90;;;;;;5153213;27;20046;-47
2021/05/20 01:10:06;;;;;;;27.50;12.45;;;6.30;99.90;;;;;;5155460;27;20744;-50
2021/05/20 01:12:33;;;;;;;16.15;11.45;;;6.30;99.90;;;;;;5156799;27;20042;-49
2021/05/20 01:15:00;;;;;;;18.88;10.98;;;6.30;99.90;;;;;;5137795;27;20076;-46
2021/05/20 01:17:27;;;;;;;20.88;11.18;;;6.20;99.90;;;;;;5147458;27;20039;-50
2021/05/20 01:19:54;;;;;;;45.25;12.52;;;6.20;99.90;;;;;;5150129;27;20406;-48
2021/05/20 01:22:20;;;;;;;43.80;13.73;;;6.20;99.90;;;;;;5151909;27;20043;-51
2021/05/20 01:24:47;;;;;;;30.33;11.63;;;6.10;99.90;;;;;;5150501;27;20165;-48
2021/05/20 01:27:14;;;;;;;26.33;11.73;;;6.10;99.90;;;;;;5157602;27;20123;-48
2021/05/20 01:29:44;;;;;;;17.23;11.35;;;6.10;99.90;;;;;;5151371;27;20087;-47
2021/05/20 01:32:11;;;;;;;20.13;9.07;;;6.00;99.90;;;;;;5150108;27;20159;-48
2021/05/20 01:34:38;;;;;;;19.25;10.02;;;6.00;99.90;;;;;;5150768;27;20133;-48
2021/05/20 01:37:15;;;;;;;40.90;11.20;;;6.00;99.90;;;;;;5134257;27;20058;-49
2021/05/20 01:39:46;;;;;;;35.25;11.35;;;6.00;99.90;;;;;;5149040;27;20091;-48
2021/05/20 01:42:15;;;;;;;34.92;12.00;;;6.00;99.90;;;;;;5149614;27;20039;-49
2021/05/20 01:44:44;;;;;;;12.95;9.35;;;6.00;99.90;;;;;;5150086;27;20546;-51
2021/05/20 01:47:12;;;;;;;12.73;10.20;;;6.00;99.90;;;;;;5146665;27;20803;-49
2021/05/20 01:49:48;;;;;;;13.75;8.25;;;6.00;99.90;;;;;;5149531;27;20577;-48
2021/05/20 01:52:18;;;;;;;9.55;6.80;;;6.00;99.90;;;;;;5150214;27;20410;-52
2021/05/20 01:54:47;;;;;;;14.30;8.00;;;5.90;99.90;;;;;;5149952;27;20126;-51
2021/05/20 01:57:16;;;;;;;12.05;6.05;;;5.90;99.90;;;;;;5139112;27;20492;-51
2021/05/20 01:59:45;;;;;;;8.10;7.07;;;5.80;99.90;;;;;;5148481;27;20039;-50
2021/05/20 02:02:13;;;;;;;8.45;7.18;;;5.90;99.90;;;;;;5149238;27;20038;-49
2021/05/20 02:04:40;;;;;;;8.27;7.47;;;5.90;99.90;;;;;;5149130;27;20046;-50
2021/05/20 02:07:06;;;;;;;10.02;9.05;;;5.90;99.90;;;;;;5149770;27;20051;-49
2021/05/20 02:09:35;;;;;;;13.13;8.73;;;5.80;99.90;;;;;;5148762;27;20046;-48
2021/05/20 02:12:03;;;;;;;9.63;8.40;;;5.90;99.90;;;;;;5152074;27;20125;-46
2021/05/20 02:14:35;;;;;;;28.00;8.40;;;5.80;99.90;;;;;;5149265;27;20057;-46
2021/05/20 02:17:01;;;;;;;11.70;7.50;;;5.80;99.90;;;;;;5148742;27;20058;-47
2021/05/20 02:19:28;;;;;;;11.45;6.75;;;5.80;99.90;;;;;;5153066;27;20244;-49
2021/05/20 02:21:58;;;;;;;9.07;6.43;;;5.80;99.90;;;;;;5150077;27;20538;-47
2021/05/20 02:24:25;;;;;;;15.18;7.40;;;5.80;99.90;;;;;;5148233;27;20049;-47
2021/05/20 02:26:52;;;;;;;12.80;6.43;;;5.80;99.90;;;;;;5148567;27;20061;-49
2021/05/20 02:29:18;;;;;;;9.57;7.50;;;5.70;99.90;;;;;;5148905;27;20134;-48
2021/05/20 02:31:51;;;;;;;23.60;8.82;;;5.70;99.90;;;;;;5148881;27;20085;-47
2021/05/20 02:34:23;;;;;;;16.98;9.32;;;5.70;99.90;;;;;;5146598;27;20562;-49
2021/05/20 02:36:52;;;;;;;14.73;9.38;;;5.70;99.90;;;;;;5147254;27;20050;-49
2021/05/20 02:39:20;;;;;;;24.42;10.35;;;5.60;99.90;;;;;;5147786;27;20042;-47
2021/05/20 02:41:47;;;;;;;41.78;10.13;;;5.60;99.90;;;;;;5144709;27;20051;-46
2021/05/20 02:44:14;;;;;;;33.15;10.40;;;5.50;99.90;;;;;;5149036;27;20047;-47
2021/05/20 02:46:41;;;;;;;30.42;10.15;;;5.40;99.90;;;;;;5148610;27;20069;-48
2021/05/20 02:49:07;;;;;;;51.60;12.15;;;5.40;99.90;;;;;;5148113;27;20146;-48
2021/05/20 02:51:33;;;;;;;27.45;11.50;;;5.40;99.90;;;;;;5146288;27;20054;-47
2021/05/20 02:54:13;;;;;;;13.52;10.48;;;5.40;99.90;;;;;;5148151;27;20051;-48
2021/05/20 02:56:40;;;;;;;12.07;9.30;;;5.40;99.90;;;;;;5133739;27;20137;-46
2021/05/20 02:59:12;;;;;;;14.60;9.35;;;5.40;99.90;;;;;;5148095;27;20051;-46
2021/05/20 03:01:45;;;;;;;69.93;16.00;;;5.40;99.90;;;;;;5143019;27;20035;-47
2021/05/20 03:04:12;;;;;;;38.05;13.50;;;5.50;99.90;;;;;;5148374;27;20043;-49
2021/05/20 03:06:39;;;;;;;33.33;13.63;;;5.50;99.90;;;;;;5149171;27;20031;-49
2021/05/20 03:09:09;;;;;;;22.95;12.65;;;5.50;99.90;;;;;;5148449;27;20050;-48
2021/05/20 03:11:35;;;;;;;51.13;15.93;;;5.60;99.90;;;;;;5146791;27;20047;-50
2021/05/20 03:14:02;;;;;;;22.92;15.07;;;5.60;99.90;;;;;;5151182;27;20202;-49
2021/05/20 03:16:28;;;;;;;19.05;17.25;;;5.70;99.90;;;;;;5148878;27;20066;-49
2021/05/20 03:19:00;;;;;;;16.60;14.93;;;5.70;99.90;;;;;;5145847;27;20043;-47
2021/05/20 03:21:29;;;;;;;20.27;18.27;;;5.70;99.90;;;;;;5148136;27;20482;-48
2021/05/20 03:23:56;;;;;;;21.77;19.45;;;5.80;99.90;;;;;;5133741;27;20051;-49
2021/05/20 03:26:24;;;;;;;20.40;18.30;;;5.80;99.90;;;;;;5147601;27;20043;-50
2021/05/20 03:28:53;;;;;;;17.13;15.40;;;5.90;99.90;;;;;;5148569;27;20055;-50
2021/05/20 03:31:25;;;;;;;18.50;16.70;;;5.90;99.90;;;;;;5147784;27;20054;-47
2021/05/20 03:33:54;;;;;;;16.35;14.77;;;5.90;99.90;;;;;;5147394;27;20585;-48
2021/05/20 03:36:23;;;;;;;18.02;16.20;;;6.00;99.90;;;;;;5146487;27;20050;-50
2021/05/20 03:38:49;;;;;;;17.27;15.57;;;5.90;99.90;;;;;;5147104;27;20051;-48
2021/05/20 03:41:20;;;;;;;18.40;16.50;;;5.90;99.90;;;;;;5146853;27;20051;-48
2021/05/20 03:43:53;;;;;;;17.35;15.68;;;5.90;99.90;;;;;;5152696;27;20050;-48
2021/05/20 03:46:20;;;;;;;19.55;17.55;;;5.80;99.90;;;;;;5146642;27;20684;-47
2021/05/20 03:48:47;;;;;;;19.60;17.70;;;5.80;99.90;;;;;;5145544;27;20087;-48
2021/05/20 03:51:14;;;;;;;18.92;16.98;;;5.80;99.90;;;;;;5147679;27;20042;-50
2021/05/20 03:53:45;;;;;;;25.65;22.90;;;5.80;99.90;;;;;;5147079;27;20134;-48
2021/05/20 03:56:12;;;;;;;22.63;20.23;;;5.80;99.90;;;;;;5147387;27;20066;-50
2021/05/20 03:58:41;;;;;;;27.52;23.88;;;5.80;99.90;;;;;;5148156;27;20050;-48
2021/05/20 04:01:08;;;;;;;28.60;23.85;;;5.80;99.90;;;;;;5144920;27;20139;-49
2021/05/20 04:03:42;;;;;;;21.95;19.83;;;5.90;99.90;;;;;;5147439;27;20046;-49
2021/05/20 04:06:11;;;;;;;24.90;21.60;;;5.90;99.90;;;;;;5145833;27;20600;-50
2021/05/20 04:08:37;;;;;;;35.30;25.33;;;6.00;99.90;;;;;;5148165;27;20050;-49
2021/05/20 04:11:08;;;;;;;47.22;32.08;;;6.00;99.90;;;;;;5147129;27;20094;-47
2021/05/20 04:13:37;;;;;;;47.70;34.10;;;6.20;99.90;;;;;;5147919;27;20053;-47
2021/05/20 04:16:06;;;;;;;56.67;34.75;;;6.20;99.90;;;;;;5147366;27;20043;-49
2021/05/20 04:18:44;;;;;;;126.28;41.92;;;6.40;99.90;;;;;;5130483;27;20099;-50
2021/05/20 04:21:15;;;;;;;89.00;41.13;;;6.50;99.90;;;;;;5147006;27;20138;-51
2021/05/20 04:23:47;;;;;;;84.25;35.33;;;6.60;99.90;;;;;;5147203;27;20107;-52
2021/05/20 04:26:19;;;;;;;92.65;30.98;;;6.70;99.90;;;;;;5149610;27;20482;-53
2021/05/20 04:28:47;;;;;;;92.55;35.05;;;6.70;99.90;;;;;;5148453;27;20054;-50
2021/05/20 04:31:17;;;;;;;67.22;31.23;;;6.80;99.90;;;;;;5147560;27;20508;-49
2021/05/20 04:33:44;;;;;;;74.10;35.95;;;6.80;99.90;;;;;;5151246;27;20103;-49
2021/05/20 04:36:10;;;;;;;61.17;33.60;;;6.90;99.90;;;;;;5158066;27;20073;-48
2021/05/20 04:38:39;;;;;;;95.60;40.10;;;6.90;99.90;;;;;;5133517;27;20054;-49
2021/05/20 04:41:08;;;;;;;76.53;36.08;;;7.00;99.90;;;;;;5150112;27;20563;-49
2021/05/20 04:43:36;;;;;;;63.17;38.33;;;7.00;99.90;;;;;;5151105;27;20045;-51
2021/05/20 04:46:05;;;;;;;47.03;34.97;;;7.10;99.90;;;;;;5150680;27;20053;-49
2021/05/20 04:48:31;;;;;;;49.83;37.22;;;7.20;99.90;;;;;;5156211;27;20411;-48
2021/05/20 04:51:01;;;;;;;56.05;37.60;;;7.30;99.90;;;;;;5150601;27;20043;-49
2021/05/20 04:53:30;;;;;;;48.53;36.03;;;7.40;99.90;;;;;;5153031;27;20049;-49
2021/05/20 04:55:56;;;;;;;53.55;39.13;;;7.50;99.90;;;;;;5155083;27;20039;-50
2021/05/20 04:58:25;;;;;;;60.88;40.80;;;7.60;99.90;;;;;;5134617;27;20065;-49
2021/05/20 05:00:56;;;;;;;70.53;43.05;;;7.80;99.90;;;;;;5159168;27;20049;-49
2021/05/20 05:03:27;;;;;;;167.13;46.45;;;7.90;99.90;;;;;;5150824;27;20095;-49
2021/05/20 05:05:56;;;;;;;173.77;46.15;;;8.00;99.90;;;;;;5152178;27;20436;-47
2021/05/20 05:08:22;;;;;;;219.45;52.95;;;8.00;99.90;;;;;;5153149;27;20038;-48
2021/05/20 05:10:49;;;;;;;161.82;46.83;;;8.10;99.90;;;;;;5152247;27;20669;-48
2021/05/20 05:13:19;;;;;;;220.00;36.28;;;8.20;99.90;;;;;;5150610;27;20187;-49
2021/05/20 05:15:46;;;;;;;191.32;34.72;;;8.30;99.90;;;;;;5158118;27;20043;-50
2021/05/20 05:18:12;;;;;;;244.57;43.95;;;8.20;99.90;;;;;;5152259;27;20121;-48
2021/05/20 05:20:42;;;;;;;119.20;34.10;;;8.20;99.90;;;;;;5150711;27;20182;-47
2021/05/20 05:23:08;;;;;;;102.53;32.67;;;8.30;99.90;;;;;;5147624;27;20126;-46
2021/05/20 05:25:37;;;;;;;100.75;33.00;;;8.40;99.90;;;;;;5149148;27;20039;-47
2021/05/20 05:28:04;;;;;;;85.00;32.78;;;8.50;99.90;;;;;;5150382;27;20050;-47
2021/05/20 05:30:31;;;;;;;111.53;35.33;;;8.50;99.90;;;;;;5150110;27;20070;-46
2021/05/20 05:33:00;;;;;;;129.88;38.80;;;8.60;99.90;;;;;;5149300;27;20784;-46
2021/05/20 05:35:29;;;;;;;117.90;35.15;;;8.70;99.90;;;;;;5148016;27;20039;-46
2021/05/20 05:37:55;;;;;;;94.03;32.22;;;8.70;99.90;;;;;;5147591;27;20043;-44
2021/05/20 05:40:27;;;;;;;135.25;48.80;;;8.80;99.90;;;;;;5159912;27;20087;-47
2021/05/20 05:42:54;;;;;;;113.88;59.30;;;8.90;99.90;;;;;;5134482;27;20141;-47
2021/05/20 05:45:23;;;;;;;114.80;74.68;;;9.00;99.90;;;;;;5156097;27;20085;-47
2021/05/20 05:47:52;;;;;;;83.00;46.25;;;9.00;99.90;;;;;;5157587;27;20065;-48
2021/05/20 05:50:22;;;;;;;85.90;42.50;;;9.10;99.90;;;;;;5159030;27;20071;-47
2021/05/20 05:52:49;;;;;;;92.60;44.88;;;9.10;99.90;;;;;;5154051;27;20054;-45
2021/05/20 05:55:18;;;;;;;71.97;51.30;;;9.20;99.90;;;;;;5154982;27;20050;-46
2021/05/20 05:57:46;;;;;;;66.10;42.22;;;9.30;99.90;;;;;;5151470;27;20055;-47
2021/05/20 06:00:14;;;;;;;71.35;43.65;;;9.30;99.90;;;;;;5152579;27;20080;-49
2021/05/20 06:02:45;;;;;;;81.80;48.92;;;9.40;99.90;;;;;;5148258;27;20051;-49
2021/05/20 06:05:12;;;;;;;65.28;46.15;;;9.40;99.90;;;;;;5148870;27;20047;-47
2021/05/20 06:07:41;;;;;;;68.07;42.38;;;9.50;99.90;;;;;;5149146;27;20050;-50
2021/05/20 06:10:08;;;;;;;58.92;44.30;;;9.60;99.90;;;;;;5149256;27;20122;-48
2021/05/20 06:12:37;;;;;;;50.05;39.88;;;9.60;99.90;;;;;;5152937;27;20446;-49
2021/05/20 06:15:06;;;;;;;87.45;42.53;;;9.70;99.90;;;;;;5136930;27;20043;-48
2021/05/20 06:17:36;;;;;;;91.13;73.68;;;9.70;99.90;;;;;;5148869;27;20121;-47
2021/05/20 06:20:06;;;;;;;62.95;48.53;;;9.70;99.90;;;;;;5149273;27;20046;-48
2021/05/20 06:22:36;;;;;;;62.83;43.25;;;9.70;99.90;;;;;;5147301;27;20050;-48
2021/05/20 06:25:04;;;;;;;54.85;40.10;;;9.90;99.90;;;;;;5153579;27;20042;-54
2021/05/20 06:27:30;;;;;;;56.70;48.30;;;10.00;99.90;;;;;;5154292;27;20054;-55
2021/05/20 06:29:57;;;;;;;46.90;37.47;;;10.20;99.90;;;;;;5150214;27;20138;-50
2021/05/20 06:32:28;;;;;;;47.75;39.53;;;10.20;99.90;;;;;;5148796;27;20050;-55
2021/05/20 06:34:54;;;;;;;42.58;38.13;;;10.30;99.90;;;;;;5149660;27;20054;-53
2021/05/20 06:37:21;;;;;;;39.97;35.95;;;10.40;99.90;;;;;;5152128;27;20047;-54
2021/05/20 06:39:47;;;;;;;42.67;36.67;;;10.60;99.90;;;;;;5149901;27;20048;-56
2021/05/20 06:42:17;;;;;;;42.05;37.45;;;10.50;99.90;;;;;;5149448;27;20132;-54
2021/05/20 06:44:44;;;;;;;40.50;36.15;;;10.50;99.90;;;;;;5149976;27;20061;-55
2021/05/20 06:47:10;;;;;;;42.20;37.88;;;10.60;99.90;;;;;;5130070;27;20054;-56
2021/05/20 06:49:37;;;;;;;43.10;38.20;;;10.80;99.90;;;;;;5149019;27;20039;-58
2021/05/20 06:52:06;;;;;;;79.65;69.97;;;10.70;99.90;;;;;;5149467;27;20078;-53
2021/05/20 06:54:33;;;;;;;55.00;49.00;;;10.80;99.90;;;;;;5149036;27;20074;-55
2021/05/20 06:57:04;;;;;;;73.97;66.15;;;10.80;99.90;;;;;;5147903;27;20051;-56
2021/05/20 07:02:15;;;;;;;41.50;37.35;;;11.10;99.90;;;;;;5146511;27;20065;-57
2021/05/20 07:04:41;;;;;;;45.67;40.85;;;11.30;99.90;;;;;;5146005;27;20053;-57
2021/05/20 07:07:11;;;;;;;43.78;39.22;;;11.30;99.90;;;;;;5148106;27;20050;-52
2021/05/20 07:09:40;;;;;;;36.75;32.90;;;11.20;99.90;;;;;;5147763;27;20486;-49
2021/05/20 07:12:07;;;;;;;68.55;61.25;;;11.30;99.90;;;;;;5143712;27;20043;-46
2021/05/20 07:14:33;;;;;;;101.00;89.88;;;11.50;99.90;;;;;;5149750;27;20066;-47
2021/05/20 07:16:59;;;;;;;47.15;42.25;;;11.60;99.90;;;;;;5146642;27;20038;-47
2021/05/20 07:19:26;;;;;;;39.92;35.90;;;11.60;99.90;;;;;;5130734;27;20091;-52
2021/05/20 07:21:55;;;;;;;40.20;36.05;;;11.60;99.70;;;;;;5144785;27;20051;-49
2021/05/20 07:24:21;;;;;;;34.45;31.10;;;11.90;99.90;;;;;;5148828;27;20138;-49
2021/05/20 07:26:48;;;;;;;34.90;31.50;;;12.10;99.00;;;;;;5147152;27;20574;-47
2021/05/20 07:29:17;;;;;;;29.27;26.38;;;12.20;98.80;;;;;;5148669;27;20452;-47
2021/05/20 07:31:44;;;;;;;28.77;25.90;;;12.50;98.60;;;;;;5146312;27;20051;-50
2021/05/20 07:34:11;;;;;;;28.67;25.73;;;13.10;97.50;;;;;;5147670;27;20073;-48
2021/05/20 07:36:42;;;;;;;28.25;25.58;;;13.10;96.80;;;;;;5148328;27;20276;-50
2021/05/20 07:39:11;;;;;;;157.77;141.00;;;13.20;97.10;;;;;;5147214;27;20047;-46
2021/05/20 07:41:41;;;;;;;30.05;27.40;;;13.40;96.80;;;;;;5144216;27;20050;-47
2021/05/20 07:44:10;;;;;;;44.55;40.05;;;13.20;94.30;;;;;;5122540;27;20047;-52
2021/05/20 07:46:42;;;;;;;25.52;23.15;;;13.30;95.70;;;;;;5143865;27;20505;-49
2021/05/20 07:49:11;;;;;;;23.55;21.35;;;13.30;95.50;;;;;;5148224;27;20135;-49
2021/05/20 07:51:37;;;;;;;26.35;23.85;;;13.80;94.90;;;;;;5147412;27;20126;-50
2021/05/20 07:54:04;;;;;;;28.75;25.75;;;14.10;95.00;;;;;;5141320;27;20089;-49
2021/05/20 07:56:34;;;;;;;22.55;20.52;;;14.10;94.60;;;;;;5147640;27;20046;-50
2021/05/20 07:59:03;;;;;;;20.48;18.63;;;14.50;93.90;;;;;;5148021;27;20051;-47
2021/05/20 08:01:34;;;;;;;27.15;24.30;;;14.90;91.40;;;;;;5155615;27;20077;-50
2021/05/20 08:04:07;;;;;;;19.75;17.88;;;15.50;92.80;;;;;;5153292;27;20046;-48
2021/05/20 08:06:41;;;;;;;16.20;14.63;;;15.80;89.70;;;;;;5152640;27;20045;-52
2021/05/20 08:09:21;;;;;;;19.30;17.30;;;15.90;90.40;;;;;;5152814;27;20047;-50
2021/05/20 08:11:50;;;;;;;17.95;16.25;;;16.20;91.40;;;;;;5147140;27;20057;-49
2021/05/20 08:14:16;;;;;;;16.80;15.20;;;16.00;91.60;;;;;;5151871;27;20042;-49
2021/05/20 08:16:45;;;;;;;16.55;15.05;;;16.20;90.20;;;;;;5155301;27;20453;-50
2021/05/20 08:19:11;;;;;;;18.85;17.02;;;15.80;83.30;;;;;;5152085;27;20046;-49
2021/05/20 08:21:39;;;;;;;20.95;19.08;;;15.30;89.60;;;;;;5146129;27;20079;-49
2021/05/20 08:24:09;;;;;;;22.75;20.65;;;15.40;89.80;;;;;;5156077;27;20035;-47
2021/05/20 08:26:40;;;;;;;20.45;18.50;;;15.60;89.60;;;;;;5156401;27;20127;-48
2021/05/20 08:29:07;;;;;;;25.67;23.30;;;15.80;89.80;;;;;;5137289;27;20125;-50
2021/05/20 08:31:34;;;;;;;16.98;15.48;;;16.70;89.10;;;;;;5150992;27;20031;-49
2021/05/20 08:34:01;;;;;;;17.15;15.50;;;17.60;89.40;;;;;;5154860;27;20058;-50
2021/05/20 08:36:33;;;;;;;16.17;14.77;;;17.50;83.00;;;;;;5154182;27;20478;-49
2021/05/20 08:39:04;;;;;;;19.33;17.15;;;17.50;86.20;;;;;;5147228;27;20054;-50
2021/05/20 08:41:31;;;;;;;12.90;10.68;;;18.00;83.20;;;;;;5151476;27;20058;-49
2021/05/20 08:44:11;;;;;;;20.10;18.27;;;17.90;81.50;;;;;;5151718;27;20057;-53
2021/05/20 08:46:40;;;;;;;29.73;26.77;;;16.70;76.90;;;;;;5150579;27;20137;-49
2021/05/20 08:49:14;;;;;;;16.48;14.55;;;16.20;83.20;;;;;;5148368;27;20051;-49
2021/05/20 08:51:47;;;;;;;16.38;14.95;;;16.60;85.40;;;;;;5158463;27;20060;-52
2021/05/20 08:54:18;;;;;;;20.20;18.30;;;17.00;83.70;;;;;;5163606;27;20083;-49
2021/05/20 08:56:55;;;;;;;41.80;37.17;;;17.10;85.10;;;;;;5151743;27;20059;-50
2021/05/20 08:59:25;;;;;;;19.00;16.85;;;17.60;76.70;;;;;;5147919;27;20071;-52
2021/05/20 09:01:58;;;;;;;15.18;13.65;;;17.70;73.40;;;;;;5150294;27;20517;-50
2021/05/20 09:04:32;;;;;;;9.98;9.05;;;17.80;76.30;;;;;;5153434;27;20049;-53
2021/05/20 09:07:06;;;;;;;12.55;10.73;;;17.90;74.60;;;;;;5144014;27;20054;-52
2021/05/20 09:09:38;;;;;;;10.88;9.80;;;17.20;73.80;;;;;;5152267;27;20069;-51
2021/05/20 09:12:07;;;;;;;9.27;7.50;;;17.20;76.60;;;;;;5151260;27;20039;-53
2021/05/20 09:14:41;;;;;;;8.57;7.50;;;17.30;74.60;;;;;;5149598;27;20051;-52
2021/05/20 09:17:15;;;;;;;8.02;7.22;;;18.10;75.30;;;;;;5149859;27;20042;-53
2021/05/20 09:19:51;;;;;;;8.45;6.15;;;18.00;69.90;;;;;;5150928;27;20046;-53
2021/05/20 09:22:21;;;;;;;7.47;4.93;;;17.80;68.90;;;;;;5149737;27;20046;-49
2021/05/20 09:24:57;;;;;;;8.60;6.80;;;18.20;71.30;;;;;;5150446;27;20046;-52
2021/05/20 09:27:42;;;;;;;11.93;10.68;;;18.70;74.60;;;;;;5152993;27;20055;-50
2021/05/20 09:30:22;;;;;;;9.02;7.95;;;18.80;69.50;;;;;;5148972;27;20058;-51
2021/05/20 09:32:53;;;;;;;15.35;13.73;;;18.40;71.80;;;;;;5144818;27;20047;-53
2021/05/20 09:35:26;;;;;;;11.15;9.95;;;18.60;71.50;;;;;;5149464;27;20095;-48
2021/05/20 09:38:01;;;;;;;10.45;9.45;;;18.90;71.00;;;;;;5149313;27;20046;-49
2021/05/20 09:40:42;;;;;;;10.18;9.15;;;18.20;70.90;;;;;;5149578;27;20690;-53
2021/05/20 09:43:34;;;;;;;7.97;7.10;;;17.70;70.30;;;;;;5146974;27;20509;-52
2021/05/20 09:46:11;;;;;;;7.28;5.53;;;17.90;69.60;;;;;;5155243;27;20047;-48
2021/05/20 09:48:44;;;;;;;6.97;4.30;;;18.70;71.90;;;;;;5150361;27;20054;-51
2021/05/20 09:51:20;;;;;;;8.00;6.07;;;18.20;64.40;;;;;;5144874;27;20505;-48
2021/05/20 09:53:53;;;;;;;12.07;10.70;;;18.80;63.20;;;;;;5151621;27;20422;-52
2021/05/20 09:56:40;;;;;;;7.47;5.90;;;19.00;62.60;;;;;;5149780;27;20054;-48
2021/05/20 09:59:14;;;;;;;6.03;2.67;;;19.10;64.70;;;;;;5149765;27;20406;-48
2021/05/20 10:01:42;;;;;;;5.80;3.10;;;19.10;65.70;;;;;;5156134;27;20119;-50
2021/05/20 10:04:29;;;;;;;5.45;4.40;;;18.70;64.50;;;;;;5158013;27;20482;-50
2021/05/20 10:06:57;;;;;;;5.97;3.88;;;18.00;63.50;;;;;;5131075;27;20050;-52
2021/05/20 10:09:24;;;;;;;7.28;5.03;;;17.40;64.70;;;;;;5146749;27;20133;-50
2021/05/20 10:11:54;;;;;;;6.07;4.88;;;18.00;67.20;;;;;;5149505;27;20055;-52
2021/05/20 10:14:25;;;;;;;5.25;4.00;;;18.60;66.20;;;;;;5151082;27;20061;-49
2021/05/20 10:16:52;;;;;;;3.45;2.40;;;18.30;64.50;;;;;;5150632;27;20050;-48
2021/05/20 10:19:19;;;;;;;4.65;3.65;;;18.70;63.50;;;;;;5151016;27;20051;-49
2021/05/20 10:21:52;;;;;;;6.30;5.57;;;19.00;60.80;;;;;;5151966;27;20666;-48
2021/05/20 10:24:18;;;;;;;13.70;4.90;;;19.10;61.60;;;;;;5131614;27;20051;-47
2021/05/20 10:26:45;;;;;;;6.15;4.30;;;19.80;62.60;;;;;;5150183;27;20054;-50
2021/05/20 10:29:13;;;;;;;8.30;5.07;;;19.70;63.70;;;;;;5150245;27;20051;-52
2021/05/20 10:31:43;;;;;;;6.38;4.88;;;19.50;61.10;;;;;;5157607;27;20048;-52
2021/05/20 10:34:09;;;;;;;4.22;2.92;;;18.70;60.90;;;;;;5150455;27;20133;-50
2021/05/20 10:36:35;;;;;;;7.05;3.45;;;18.10;61.30;;;;;;5149958;27;20236;-52
2021/05/20 10:39:28;;;;;;;6.47;3.97;;;17.40;62.40;;;;;;5150466;27;20050;-50
2021/05/20 10:41:56;;;;;;;6.13;5.18;;;17.90;62.00;;;;;;5146747;27;20523;-50
2021/05/20 10:44:22;;;;;;;7.30;5.32;;;18.50;63.90;;;;;;5150549;27;20126;-53
2021/05/20 10:46:58;;;;;;;7.32;6.25;;;18.90;63.30;;;;;;5150779;27;20051;-51
2021/05/20 10:49:46;;;;;;;8.68;6.82;;;18.90;64.30;;;;;;5151386;27;20046;-51
2021/05/20 10:52:45;;;;;;;11.50;10.40;;;19.30;62.00;;;;;;5150691;27;20051;-55
2021/05/20 10:55:17;;;;;;;7.63;6.93;;;19.00;60.00;;;;;;5150502;27;20459;-53
2021/05/20 10:57:53;;;;;;;9.65;8.38;;;19.10;56.40;;;;;;5150230;27;20091;-52
2021/05/20 11:00:41;;;;;;;10.52;9.50;;;19.20;57.10;;;;;;5154810;27;20042;-50
2021/05/20 11:03:10;;;;;;;10.90;9.90;;;19.70;57.30;;;;;;5149912;27;20043;-52
2021/05/20 11:05:40;;;;;;;9.68;8.68;;;19.80;60.20;;;;;;5131813;27;20170;-49
2021/05/20 11:08:09;;;;;;;8.95;8.05;;;19.70;57.90;;;;;;5149955;27;20057;-54
2021/05/20 11:10:38;;;;;;;12.75;9.45;;;19.30;54.70;;;;;;5149649;27;20091;-50
2021/05/20 11:13:05;;;;;;;10.23;9.02;;;19.70;57.80;;;;;;5147949;27;20047;-51
2021/05/20 11:15:34;;;;;;;9.82;8.85;;;19.80;57.10;;;;;;5149071;27;20051;-51
2021/05/20 11:18:33;;;;;;;11.13;10.00;;;19.90;56.70;;;;;;5149426;27;20054;-50
2021/05/20 11:20:59;;;;;;;7.65;6.80;;;19.60;54.00;;;;;;5156457;27;20118;-59
2021/05/20 11:23:26;;;;;;;8.43;7.15;;;20.10;50.50;;;;;;5130851;27;20042;-56
2021/05/20 11:26:06;;;;;;;8.57;5.63;;;19.80;50.00;;;;;;5151532;27;20051;-48
2021/05/20 11:28:48;;;;;;;7.65;6.00;;;19.90;50.70;;;;;;5149522;27;20082;-55
2021/05/20 11:31:21;;;;;;;7.15;6.45;;;19.80;50.40;;;;;;5149916;27;20087;-48
2021/05/20 11:34:39;;;;;;;9.77;7.80;;;19.50;52.20;;;;;;5155351;27;20043;-53
2021/05/20 11:36:55;;;;;;;9.23;7.97;;;18.80;50.50;;;;;;5148975;27;20058;-53
2021/05/20 11:39:22;;;;;;;8.85;7.95;;;18.90;55.30;;;;;;5156934;27;20050;-51
2021/05/20 11:41:49;;;;;;;8.05;7.22;;;19.40;54.10;;;;;;5149371;27;20055;-51
2021/05/20 11:44:21;;;;;;;7.57;6.78;;;19.80;55.40;;;;;;5151479;27;20039;-52
2021/05/20 11:47:08;;;;;;;8.57;6.82;;;20.40;55.10;;;;;;5149646;27;20089;-50
2021/05/20 11:49:37;;;;;;;9.82;7.45;;;20.40;51.50;;;;;;5149391;27;20086;-51
2021/05/20 11:52:07;;;;;;;9.02;6.85;;;19.80;51.20;;;;;;5149700;27;20710;-48
2021/05/20 11:54:38;;;;;;;8.73;6.50;;;19.10;52.70;;;;;;5131218;27;20081;-51
2021/05/20 11:57:07;;;;;;;8.55;6.05;;;18.80;55.00;;;;;;5149459;27;20403;-51
2021/05/20 11:59:34;;;;;;;8.48;7.00;;;19.20;54.80;;;;;;5149423;27;20058;-52
2021/05/20 12:02:01;;;;;;;11.80;7.80;;;19.80;54.60;;;;;;5149495;27;20051;-51
2021/05/20 12:04:28;;;;;;;8.63;6.88;;;20.30;56.50;;;;;;5149294;27;20053;-50
2021/05/20 12:06:55;;;;;;;10.38;7.53;;;19.90;53.80;;;;;;5130292;27;20051;-49
2021/05/20 12:09:23;;;;;;;9.27;8.38;;;19.60;58.00;;;;;;5149220;27;20066;-52
2021/05/20 12:11:50;;;;;;;12.80;10.23;;;19.20;54.70;;;;;;5149302;27;20418;-50
2021/05/20 12:14:32;;;;;;;11.10;9.27;;;19.00;57.60;;;;;;5148869;27;20043;-55
2021/05/20 12:17:08;;;;;;;12.38;11.07;;;18.80;61.40;;;;;;5148993;27;20081;-51
2021/05/20 12:19:48;;;;;;;13.00;11.57;;;18.80;61.30;;;;;;5149100;27;20387;-49
2021/05/20 12:22:25;;;;;;;12.80;11.50;;;18.40;63.90;;;;;;5148981;27;20046;-52
2021/05/20 12:24:57;;;;;;;13.15;11.75;;;18.40;63.80;;;;;;5149710;27;20051;-49
2021/05/20 12:27:37;;;;;;;12.32;10.63;;;18.40;65.10;;;;;;5149018;27;20043;-52
2021/05/20 12:30:22;;;;;;;11.48;10.32;;;19.10;63.00;;;;;;5151523;27;20070;-51
2021/05/20 12:33:07;;;;;;;11.27;10.18;;;19.40;62.50;;;;;;5152159;27;20122;-52
2021/05/20 12:35:43;;;;;;;10.45;8.63;;;19.30;62.00;;;;;;5148782;27;20418;-51
2021/05/20 12:38:20;;;;;;;11.43;9.38;;;19.10;60.60;;;;;;5148487;27;20051;-48
2021/05/20 12:40:49;;;;;;;10.68;8.82;;;18.70;61.40;;;;;;5149241;27;20085;-50
2021/05/20 12:43:27;;;;;;;11.88;9.75;;;19.20;60.70;;;;;;5156821;27;20049;-52
2021/05/20 12:45:56;;;;;;;9.57;8.55;;;19.50;58.40;;;;;;5126620;28;20059;-52
2021/05/20 12:48:35;;;;;;;9.77;8.48;;;20.50;58.60;;;;;;5131046;27;20065;-51
2021/05/20 12:51:07;;;;;;;10.52;9.00;;;20.30;56.00;;;;;;5135460;27;20047;-51
2021/05/20 12:53:37;;;;;;;10.05;9.05;;;20.60;56.00;;;;;;5131817;27;20055;-53
2021/05/20 12:56:20;;;;;;;11.15;8.50;;;20.50;55.70;;;;;;5131935;27;20057;-51